Impacts TAF Board INFO
FOR SITUATIONAL AWARENESS. NOT TO BE USED FOR FLIGHT PLANNING PURPOSES.
IDs:

KPDX - Portland Intl Arpt, OR, US

Issued at 1724 UTC 21 Sep 2017
Updated at 1741 UTC 21 Sep 2017
Potential Impact None Slight Moderate High
Time1653Z 21/18Z 21/19Z 21/20Z 21/21Z 21/22Z 21/23Z 22/00Z 22/01Z 22/02Z 22/03Z 22/04Z 22/05Z 22/06Z>>
Type OBS PRVL PRVL PRVL PRVL PRVL PRVL PRVL PRVL PRVL PRVL PRVL PRVL PRVL
VIS 10 >6 >6 >6 >6 >6 >6 >6 >6 >6 >6 >6 >6 >6
CIG 14 14 14 35 35 35 35 35 35 -- -- -- -- --
Cover OVC OVC OVC BKN BKN BKN BKN BKN BKN SCT SCT SCT SCT SCT
FltCat MVFR MVFR MVFR VFR VFR VFR VFR VFR VFR VFR VFR VFR VFR VFR
WX -- VCSH VCSH VCSH VCSH VCSH VCSH VCSH VCSH -- -- -- -- --
WDir 190 170 170 290 290 290 290 290 290 340 340 340 340 340
WSpd 6 6 6 4 4 4 4 4 4 4 4 4 4 4
WGst -- -- -- -- -- -- -- -- -- -- -- -- -- --

Raw TAF
KPDX 211724Z 2118/2218 17006KT P6SM VCSH OVC014
  FM212000 29004KT P6SM VCSH BKN035
  FM220200 34004KT P6SM SCT060
  FM221200 00000KT 2SM BR SCT007 BKN015


Raw METAR
KPDX 211653Z 19006KT 10SM OVC014 11/09 A2995 RMK AO2 SLP142 T01060094
KPDX 211553Z 15004KT 10SM BKN014 BKN038 OVC055 10/09 A2995 RMK AO2 RAE49 SLP141 P0002 T01000094
KPDX 211545Z 18005KT 10SM -RA SCT014 BKN038 OVC055 10/09 A2995 RMK AO2 P0002 T01000094
KPDX 211453Z 17006KT 9SM -RA BKN014 BKN032 OVC042 10/09 A2994 RMK AO2 RAB49 SLP139 P0000 60000 T01000089 53010
KPDX 211439Z 15004KT 10SM BKN014 BKN032 OVC042 10/09 A2994 RMK AO2 T01000089

METAR Board
Radar Display
Forecast Discussion

FOR SITUATIONAL AWARENESS. NOT TO BE USED FOR FLIGHT PLANNING PURPOSES.